createdAt,value
2022-11-24T00:01:22.044Z,99949.72
2022-11-24T00:04:06.711Z,99959.97
2022-11-24T00:06:35.804Z,99952.59
2022-11-24T00:09:04.793Z,99940.34
2022-11-24T00:11:34.335Z,99934.59
2022-11-24T00:14:02.158Z,99932.75
2022-11-24T00:16:31.700Z,99943.63
2022-11-24T00:19:00.870Z,99934.81
2022-11-24T00:21:28.828Z,99954.25
2022-11-24T00:23:55.532Z,99930.50
2022-11-24T00:26:28.950Z,99935.00
2022-11-24T00:28:58.166Z,99939.72
2022-11-24T00:31:33.729Z,99927.88
2022-11-24T00:34:03.461Z,99946.06
2022-11-24T00:36:32.344Z,99950.34
2022-11-24T00:39:02.399Z,99946.88
2022-11-24T00:41:29.691Z,99948.72
2022-11-24T00:43:56.717Z,99953.00
2022-11-24T00:46:24.008Z,99961.38
2022-11-24T00:48:51.208Z,99968.53
2022-11-24T00:51:23.135Z,99971.00
2022-11-24T00:53:50.019Z,99958.94
2022-11-24T00:56:16.577Z,99964.47
2022-11-24T00:58:43.130Z,99974.88
2022-11-24T01:01:12.872Z,99977.97
2022-11-24T01:03:39.834Z,99970.00
2022-11-24T01:06:12.470Z,99974.47
2022-11-24T01:08:39.981Z,99974.88
2022-11-24T01:11:17.830Z,99973.84
2022-11-24T01:13:47.402Z,99982.88
2022-11-24T01:16:20.889Z,99979.19
2022-11-24T01:18:48.172Z,99992.69
2022-11-24T01:21:15.569Z,99991.88
2022-11-24T01:23:42.561Z,99994.53
2022-11-24T01:26:11.818Z,99991.66
2022-11-24T01:28:44.860Z,99996.75
2022-11-24T01:31:13.804Z,99998.00
2022-11-24T01:33:40.462Z,99999.84
2022-11-24T01:36:07.427Z,100015.97
2022-11-24T01:38:36.080Z,100018.84
2022-11-24T01:41:29.068Z,100020.50
2022-11-24T01:43:57.079Z,100025.00
2022-11-24T01:46:41.915Z,100032.13
2022-11-24T01:49:08.355Z,100034.19
2022-11-24T01:51:39.491Z,100034.75
2022-11-24T01:54:25.844Z,100045.19
2022-11-24T01:56:57.404Z,100029.44
2022-11-24T01:59:25.441Z,100038.25
2022-11-24T02:01:53.537Z,100042.75
2022-11-24T02:04:26.486Z,100042.94
2022-11-24T02:06:54.988Z,100042.31
2022-11-24T02:09:47.869Z,100047.44
2022-11-24T02:12:14.518Z,100044.16
2022-11-24T02:14:43.163Z,100048.47
2022-11-24T02:17:09.849Z,100051.13
2022-11-24T02:19:39.055Z,100061.75
2022-11-24T02:22:12.943Z,100068.91
2022-11-24T02:24:56.128Z,100069.28
2022-11-24T02:27:23.472Z,100073.41
2022-11-24T02:29:50.513Z,100075.44
2022-11-24T02:32:18.706Z,100069.09
2022-11-24T02:34:45.409Z,100065.44
2022-11-24T02:37:11.993Z,100072.78
2022-11-24T02:39:38.624Z,100075.44
2022-11-24T02:42:10.010Z,100068.47
2022-11-24T02:44:41.756Z,100075.63
2022-11-24T02:47:13.024Z,100076.63
2022-11-24T02:49:39.949Z,100071.50
2022-11-24T02:52:06.900Z,100079.69
2022-11-24T02:54:33.894Z,100073.19
2022-11-24T02:57:00.853Z,100070.94
2022-11-24T02:59:27.566Z,100080.75
2022-11-24T03:01:54.123Z,100072.34
2022-11-24T03:04:20.761Z,100067.03
2022-11-24T03:06:47.353Z,100080.31
2022-11-24T03:09:13.933Z,100079.09
2022-11-24T03:11:40.697Z,100082.59
2022-11-24T03:14:07.856Z,100070.13
2022-11-24T03:16:34.562Z,100080.56
2022-11-24T03:19:01.909Z,100089.97
2022-11-24T03:21:28.845Z,100087.50
2022-11-24T03:23:55.724Z,100097.94
2022-11-24T03:26:23.976Z,100099.81
2022-11-24T03:28:52.794Z,100113.31
2022-11-24T03:31:19.518Z,100110.81
2022-11-24T03:33:46.098Z,100125.78
2022-11-24T03:36:12.768Z,100129.03
2022-11-24T03:38:39.320Z,100132.66
2022-11-24T03:41:06.018Z,100132.66
2022-11-24T03:43:33.765Z,100141.47
2022-11-24T03:46:01.067Z,100140.44
2022-11-24T03:48:27.685Z,100132.88
2022-11-24T03:51:00.277Z,100139.47
2022-11-24T03:53:28.792Z,100145.38
2022-11-24T03:55:55.494Z,100135.38
2022-11-24T03:58:22.450Z,100147.50
2022-11-24T04:00:49.774Z,100134.34
2022-11-24T04:03:16.825Z,100148.25
2022-11-24T04:05:43.350Z,100150.69
2022-11-24T04:08:09.848Z,100153.34
2022-11-24T04:10:37.994Z,100158.69
2022-11-24T04:13:10.117Z,100157.03
2022-11-24T04:15:40.470Z,100151.94
2022-11-24T04:18:07.899Z,100158.88
2022-11-24T04:20:35.150Z,100167.03
2022-11-24T04:23:02.350Z,100168.91
2022-11-24T04:25:28.851Z,100157.63
2022-11-24T04:27:55.866Z,100156.34
2022-11-24T04:30:23.913Z,100183.19
2022-11-24T04:32:51.020Z,100195.50
2022-11-24T04:35:18.172Z,100198.50
2022-11-24T04:37:44.618Z,100204.84
2022-11-24T04:40:12.538Z,100211.38
2022-11-24T04:42:38.978Z,100210.75
2022-11-24T04:45:06.614Z,100212.56
2022-11-24T04:47:34.460Z,100219.09
2022-11-24T04:50:00.990Z,100218.28
2022-11-24T04:52:27.590Z,100233.41
2022-11-24T04:54:54.161Z,100234.44
2022-11-24T04:57:23.627Z,100245.25
2022-11-24T04:59:51.089Z,100248.91
2022-11-24T05:02:17.844Z,100241.13
2022-11-24T05:04:44.615Z,100231.78
2022-11-24T05:07:17.953Z,100252.13
2022-11-24T05:10:04.664Z,100257.25
2022-11-24T05:12:31.450Z,100260.56
2022-11-24T05:15:02.240Z,100266.06
2022-11-24T05:17:31.097Z,100262.56
2022-11-24T05:19:57.983Z,100270.94
2022-11-24T05:22:24.697Z,100274.19
2022-11-24T05:24:51.129Z,100287.50
2022-11-24T05:27:17.554Z,100288.50
2022-11-24T05:29:43.959Z,100305.50
2022-11-24T05:32:10.452Z,100303.63
2022-11-24T05:34:36.866Z,100306.47
2022-11-24T05:37:03.874Z,100314.84
2022-11-24T05:39:34.643Z,100323.63
2022-11-24T05:42:25.994Z,100334.91
2022-11-24T05:44:53.253Z,100338.75
2022-11-24T05:47:19.751Z,100336.09
2022-11-24T05:49:46.372Z,100342.78
2022-11-24T05:52:13.606Z,100353.06
2022-11-24T05:54:41.125Z,100358.56
2022-11-24T05:57:07.723Z,100358.56
2022-11-24T05:59:35.297Z,100364.03
2022-11-24T06:02:01.931Z,100380.19
2022-11-24T06:04:28.565Z,100370.09
2022-11-24T06:06:55.130Z,100373.88
2022-11-24T06:09:21.531Z,100378.34
2022-11-24T06:11:48.809Z,100373.88
2022-11-24T06:14:15.388Z,100358.94
2022-11-24T06:16:41.850Z,100366.16
2022-11-24T06:19:10.436Z,100379.09
2022-11-24T06:21:36.939Z,100384.88
2022-11-24T06:24:03.739Z,100392.03
2022-11-24T06:26:30.161Z,100402.66
2022-11-24T06:28:56.547Z,100396.50
2022-11-24T06:31:23.235Z,100398.16
2022-11-24T06:33:49.757Z,100404.66
2022-11-24T06:36:16.485Z,100412.25
2022-11-24T06:38:43.039Z,100406.66
2022-11-24T06:41:14.686Z,100421.06
2022-11-24T06:43:41.262Z,100421.25
2022-11-24T06:46:08.814Z,100424.75
2022-11-24T06:48:35.229Z,100437.19
2022-11-24T06:51:06.050Z,100444.16
2022-11-24T06:53:38.009Z,100448.66
2022-11-24T06:56:15.155Z,100449.00
2022-11-24T06:58:44.408Z,100455.16
2022-11-24T07:01:18.739Z,100462.09
2022-11-24T07:03:45.819Z,100475.41
2022-11-24T07:06:12.250Z,100476.59
2022-11-24T07:08:38.703Z,100481.91
2022-11-24T07:11:06.711Z,100478.41
2022-11-24T07:13:33.460Z,100489.06
2022-11-24T07:16:00.945Z,100494.38
2022-11-24T07:18:27.417Z,100500.69
2022-11-24T07:20:53.801Z,100512.16
2022-11-24T07:23:20.242Z,100518.28
2022-11-24T07:25:46.683Z,100522.16
2022-11-24T07:28:13.070Z,100526.63
2022-11-24T07:30:39.521Z,100530.13
2022-11-24T07:33:05.969Z,100527.66
2022-11-24T07:35:32.376Z,100533.94
2022-11-24T07:37:59.398Z,100542.94
2022-11-24T07:40:26.962Z,100548.06
2022-11-24T07:42:54.240Z,100537.34
2022-11-24T07:45:20.804Z,100540.78
2022-11-24T07:47:47.357Z,100545.31
2022-11-24T07:50:14.078Z,100553.09
2022-11-24T07:52:40.495Z,100557.56
2022-11-24T07:55:07.938Z,100561.25
2022-11-24T07:57:34.900Z,100564.56
2022-11-24T08:00:01.753Z,100568.69
2022-11-24T08:02:28.202Z,100573.16
2022-11-24T08:04:54.656Z,100582.72
2022-11-24T08:07:21.148Z,100569.81
2022-11-24T08:09:47.789Z,100595.28
2022-11-24T08:12:14.270Z,100582.66
2022-11-24T08:14:40.761Z,100584.84
2022-11-24T08:17:07.214Z,100592.91
2022-11-24T08:19:34.796Z,100597.91
2022-11-24T08:22:01.372Z,100588.25
2022-11-24T08:24:27.803Z,100596.22
2022-11-24T08:26:54.587Z,100602.03
2022-11-24T08:29:21.007Z,100595.88
2022-11-24T08:31:47.454Z,100611.78
2022-11-24T08:34:14.010Z,100625.72
2022-11-24T08:36:40.440Z,100608.09
2022-11-24T08:39:06.909Z,100613.22
2022-11-24T08:41:33.396Z,100623.78
2022-11-24T08:43:59.887Z,100617.56
2022-11-24T08:46:26.287Z,100628.81
2022-11-24T08:48:54.273Z,100634.78
2022-11-24T08:51:23.705Z,100634.59
2022-11-24T08:53:57.184Z,100640.50
2022-11-24T08:56:24.250Z,100640.34
2022-11-24T08:58:50.844Z,100635.13
2022-11-24T09:01:18.189Z,100634.47
2022-11-24T09:03:50.633Z,100649.34
2022-11-24T09:06:19.999Z,100631.25
2022-11-24T09:08:46.468Z,100649.00
2022-11-24T09:11:15.165Z,100652.03
2022-11-24T09:13:42.151Z,100660.03
2022-11-24T09:16:14.238Z,100658.47
2022-11-24T09:18:41.164Z,100659.19
2022-11-24T09:21:09.755Z,100666.28
2022-11-24T09:23:36.353Z,100669.03
2022-11-24T09:26:14.198Z,100673.09
2022-11-24T09:28:42.231Z,100677.47
2022-11-24T09:31:11.408Z,100678.66
2022-11-24T09:33:38.338Z,100691.44
2022-11-24T09:36:05.172Z,100693.19
2022-11-24T09:38:32.653Z,100701.88
2022-11-24T09:41:17.338Z,100707.03
2022-11-24T09:44:17.168Z,100712.09
2022-11-24T09:47:01.151Z,100720.47
2022-11-24T09:49:38.915Z,100718.53
2022-11-24T09:52:11.092Z,100726.50
2022-11-24T09:54:46.975Z,100733.34
2022-11-24T09:57:14.811Z,100729.50
2022-11-24T09:59:42.556Z,100724.69
2022-11-24T10:02:13.301Z,100723.63
2022-11-24T10:04:43.475Z,100724.72
2022-11-24T10:07:22.532Z,100725.56
2022-11-24T10:10:22.858Z,100717.06
2022-11-24T10:13:12.981Z,100730.03
2022-11-24T10:16:15.110Z,100731.41
2022-11-24T10:18:59.630Z,100732.25
2022-11-24T10:21:44.836Z,100730.31
2022-11-24T10:24:32.387Z,100739.00
2022-11-24T10:27:22.060Z,100741.53
2022-11-24T10:29:51.883Z,100734.88
2022-11-24T10:32:35.363Z,100725.59
2022-11-24T10:35:24.468Z,100724.09
2022-11-24T10:37:58.202Z,100720.84
2022-11-24T10:40:56.376Z,100724.94
2022-11-24T10:43:26.599Z,100730.13
2022-11-24T10:45:53.184Z,100728.28
2022-11-24T10:48:25.720Z,100729.28
2022-11-24T10:51:11.953Z,100730.31
2022-11-24T10:53:41.971Z,100727.84
2022-11-24T10:56:08.423Z,100714.66
2022-11-24T10:58:40.170Z,100739.38
2022-11-24T11:01:12.903Z,100724.09
2022-11-24T11:04:17.214Z,100732.31
2022-11-24T11:06:44.758Z,100726.47
2022-11-24T11:09:14.440Z,100722.94
2022-11-24T11:11:41.801Z,100716.41
2022-11-24T11:14:12.298Z,100714.53
2022-11-24T11:16:43.673Z,100721.31
2022-11-24T11:19:58.634Z,100727.72
2022-11-24T11:22:32.210Z,100731.75
2022-11-24T11:25:11.755Z,100727.53
2022-11-24T11:27:39.742Z,100729.16
2022-11-24T11:36:11.232Z,100724.72
2022-11-24T11:38:39.430Z,100737.72
2022-11-24T11:41:07.179Z,100735.19
2022-11-24T11:43:41.016Z,100747.03
2022-11-24T11:46:13.636Z,100746.63
2022-11-24T11:48:44.811Z,100752.34
2022-11-24T11:55:08.396Z,100761.72
2022-11-24T11:57:50.984Z,100759.06
2022-11-24T12:00:20.392Z,100765.31
2022-11-24T12:02:59.546Z,100759.94
2022-11-24T12:05:50.765Z,100762.38
2022-11-24T12:09:11.352Z,100766.03
2022-11-24T12:11:46.399Z,100770.03
2022-11-24T12:14:18.101Z,100772.88
2022-11-24T12:17:09.264Z,100772.09
2022-11-24T12:19:45.475Z,100770.84
2022-11-24T12:22:17.738Z,100770.59
2022-11-24T12:25:03.324Z,100773.28
2022-11-24T12:27:41.867Z,100775.56
2022-11-24T12:30:17.751Z,100762.59
2022-11-24T12:33:03.690Z,100769.16
2022-11-24T12:35:42.687Z,100773.44
2022-11-24T12:38:23.493Z,100779.41
2022-11-24T12:41:39.606Z,100773.25
2022-11-24T12:43:54.805Z,100765.97
2022-11-24T12:46:31.873Z,100783.69
2022-11-24T12:49:08.378Z,100784.88
2022-11-24T12:51:42.096Z,100782.19
2022-11-24T12:54:18.730Z,100775.75
2022-11-24T12:57:05.576Z,100782.81
2022-11-24T12:59:57.423Z,100771.47
2022-11-24T13:02:50.136Z,100778.19
2022-11-24T13:05:21.165Z,100786.84
2022-11-24T13:07:53.839Z,100791.34
2022-11-24T13:13:17.819Z,100773.91
2022-11-24T13:19:00.465Z,100782.09
2022-11-24T13:21:47.130Z,100785.75
2022-11-24T13:26:49.057Z,100782.84
2022-11-24T13:29:25.505Z,100798.28
2022-11-24T13:32:14.374Z,100788.16
2022-11-24T13:34:43.712Z,100783.00
2022-11-24T13:37:39.477Z,100779.06
2022-11-24T13:40:11.766Z,100773.34
2022-11-24T13:43:01.157Z,100771.50
2022-11-24T13:45:39.766Z,100775.00
2022-11-24T13:48:22.440Z,100777.63
2022-11-24T13:50:53.314Z,100780.03
2022-11-24T13:53:40.651Z,100781.84
2022-11-24T13:56:13.265Z,100783.31
2022-11-24T13:58:41.093Z,100777.31
2022-11-24T14:01:28.595Z,100775.50
2022-11-24T14:04:35.243Z,100774.66
2022-11-24T14:07:11.016Z,100763.97
2022-11-24T14:09:43.640Z,100765.81
2022-11-24T14:12:18.023Z,100761.09
2022-11-24T14:14:47.169Z,100760.47
2022-11-24T14:17:14.222Z,100758.00
2022-11-24T14:19:42.406Z,100760.88
2022-11-24T14:22:21.939Z,100748.72
2022-11-24T14:24:53.730Z,100748.50
2022-11-24T14:27:25.819Z,100754.13
2022-11-24T14:29:57.627Z,100756.59
2022-11-24T14:32:24.469Z,100754.53
2022-11-24T14:34:52.118Z,100758.44
2022-11-24T14:37:20.051Z,100773.00
2022-11-24T14:39:46.920Z,100762.25
2022-11-24T14:42:18.159Z,100760.19
2022-11-24T14:44:56.782Z,100760.81
2022-11-24T14:47:36.341Z,100751.13
2022-11-24T14:50:12.224Z,100751.53
2022-11-24T14:52:45.986Z,100749.88
2022-11-24T14:55:35.251Z,100754.59
2022-11-24T14:58:01.774Z,100755.19
2022-11-24T15:00:32.841Z,100752.69
2022-11-24T15:03:02.122Z,100753.50
2022-11-24T15:06:02.256Z,100761.25
2022-11-24T15:08:35.654Z,100755.28
2022-11-24T15:11:03.973Z,100763.28
2022-11-24T15:13:37.144Z,100755.03
2022-11-24T15:16:18.511Z,100756.91
2022-11-24T15:18:48.123Z,100743.91
2022-11-24T15:21:19.147Z,100752.94
2022-11-24T15:24:15.910Z,100747.56
2022-11-24T15:26:42.851Z,100744.81
2022-11-24T15:29:10.809Z,100751.09
2022-11-24T15:31:39.309Z,100749.19
2022-11-24T15:34:06.415Z,100744.97
2022-11-24T15:36:33.274Z,100742.63
2022-11-24T15:38:59.723Z,100738.19
2022-11-24T15:41:30.552Z,100745.13
2022-11-24T15:43:59.715Z,100742.63
2022-11-24T15:46:30.676Z,100750.63
2022-11-24T15:48:57.256Z,100750.91
2022-11-24T15:51:26.205Z,100749.81
2022-11-24T15:54:00.279Z,100754.25
2022-11-24T15:56:33.389Z,100753.78
2022-11-24T15:59:00.929Z,100754.06
2022-11-24T16:01:31.526Z,100756.81
2022-11-24T16:03:58.207Z,100747.53
2022-11-24T16:06:25.580Z,100759.22
2022-11-24T16:08:55.795Z,100755.53
2022-11-24T16:11:23.171Z,100748.75
2022-11-24T16:13:53.056Z,100756.66
2022-11-24T16:16:20.984Z,100761.97
2022-11-24T16:18:47.538Z,100758.84
2022-11-24T16:21:14.039Z,100765.53
2022-11-24T16:23:40.534Z,100772.25
2022-11-24T16:26:07.251Z,100764.59
2022-11-24T16:28:33.696Z,100766.38
2022-11-24T16:31:00.267Z,100773.41
2022-11-24T16:33:28.947Z,100766.16
2022-11-24T16:35:55.400Z,100768.19
2022-11-24T16:38:22.065Z,100762.03
2022-11-24T16:40:54.020Z,100767.72
2022-11-24T16:43:20.805Z,100761.91
2022-11-24T16:46:00.009Z,100765.13
2022-11-24T16:48:26.455Z,100755.47
2022-11-24T16:50:52.848Z,100744.22
2022-11-24T16:53:19.296Z,100760.28
2022-11-24T16:55:56.876Z,100752.09
2022-11-24T16:58:23.317Z,100765.06
2022-11-24T17:00:50.005Z,100757.25
2022-11-24T17:03:16.633Z,100764.75
2022-11-24T17:05:43.084Z,100751.34
2022-11-24T17:08:09.480Z,100753.66
2022-11-24T17:10:38.772Z,100752.09
2022-11-24T17:13:05.223Z,100744.78
2022-11-24T17:15:35.527Z,100731.47
2022-11-24T17:20:51.014Z,100728.63
2022-11-24T17:23:19.625Z,100722.63
2022-11-24T17:25:46.210Z,100717.31
2022-11-24T17:28:12.619Z,100719.44
2022-11-24T17:30:39.064Z,100719.59
2022-11-24T17:33:05.782Z,100722.38
2022-11-24T17:35:34.404Z,100727.78
2022-11-24T17:38:01.500Z,100709.78
2022-11-24T17:40:29.460Z,100718.91
2022-11-24T17:43:00.420Z,100722.84
2022-11-24T17:45:28.395Z,100717.53
2022-11-24T17:47:55.323Z,100696.75
2022-11-24T17:50:25.689Z,100720.47
2022-11-24T17:52:53.208Z,100715.75
2022-11-24T17:55:19.795Z,100715.75
2022-11-24T17:57:46.184Z,100700.78
2022-11-24T18:00:13.331Z,100706.31
2022-11-24T18:02:39.940Z,100700.78
2022-11-24T18:05:06.868Z,100711.44
2022-11-24T18:07:35.943Z,100708.78
2022-11-24T18:10:02.379Z,100698.50
2022-11-24T18:12:28.865Z,100708.13
2022-11-24T18:14:55.284Z,100703.09
2022-11-24T18:17:21.699Z,100710.34
2022-11-24T18:19:48.106Z,100713.75
2022-11-24T18:22:14.478Z,100705.56
2022-11-24T18:24:41.130Z,100696.19
2022-11-24T18:27:07.630Z,100705.66
2022-11-24T18:29:35.059Z,100697.66
2022-11-24T18:32:01.666Z,100694.56
2022-11-24T18:34:28.277Z,100701.53
2022-11-24T18:36:54.693Z,100695.00
2022-11-24T18:39:21.084Z,100692.16
2022-11-24T18:41:47.807Z,100692.31
2022-11-24T18:44:14.254Z,100699.50
2022-11-24T18:46:41.709Z,100689.50
2022-11-24T18:49:08.200Z,100699.97
2022-11-24T18:51:35.800Z,100690.31
2022-11-24T18:54:03.967Z,100687.63
2022-11-24T18:56:30.433Z,100680.59
2022-11-24T18:58:57.571Z,100679.84
2022-11-24T19:01:29.020Z,100673.69
2022-11-24T19:03:57.707Z,100675.34
2022-11-24T19:06:39.884Z,100675.34
2022-11-24T19:09:18.411Z,100676.97
2022-11-24T19:11:45.769Z,100678.19
2022-11-24T19:14:14.850Z,100688.66
2022-11-24T19:16:41.654Z,100683.53
2022-11-24T19:19:10.179Z,100671.97
2022-11-24T19:21:38.398Z,100679.38
2022-11-24T19:24:10.034Z,100677.75
2022-11-24T19:26:37.901Z,100673.25
2022-11-24T19:29:05.571Z,100676.91
2022-11-24T19:31:32.439Z,100672.16
2022-11-24T19:33:59.784Z,100681.13
2022-11-24T19:36:26.382Z,100684.81
2022-11-24T19:38:56.964Z,100656.28
2022-11-24T19:41:26.301Z,100670.94
2022-11-24T19:43:55.643Z,100665.16
2022-11-24T19:46:26.135Z,100671.97
2022-11-24T19:48:55.410Z,100673.41
2022-11-24T19:51:25.440Z,100671.13
2022-11-24T19:53:53.184Z,100679.56
2022-11-24T19:56:21.887Z,100673.41
2022-11-24T19:58:49.447Z,100669.75
2022-11-24T20:01:21.380Z,100662.75
2022-11-24T20:03:53.714Z,100661.13
2022-11-24T20:06:20.152Z,100656.81
2022-11-24T20:08:46.567Z,100664.16
2022-11-24T20:11:15.789Z,100655.72
2022-11-24T20:13:44.445Z,100664.81
2022-11-24T20:16:14.352Z,100668.06
2022-11-24T20:18:43.925Z,100658.81
2022-11-24T20:21:19.200Z,100653.50
2022-11-24T20:23:51.386Z,100667.09
2022-11-24T20:26:20.261Z,100666.72
2022-11-24T20:28:47.645Z,100661.38
2022-11-24T20:31:20.943Z,100670.22
2022-11-24T20:33:47.600Z,100655.41
2022-11-24T20:36:16.636Z,100664.69
2022-11-24T20:38:44.687Z,100670.03
2022-11-24T20:41:41.794Z,100667.16
2022-11-24T20:44:13.698Z,100667.53
2022-11-24T20:46:41.785Z,100667.72
2022-11-24T20:49:12.019Z,100668.72
2022-11-24T20:51:43.814Z,100664.41
2022-11-24T20:54:12.905Z,100657.06
2022-11-24T20:56:41.550Z,100654.03
2022-11-24T20:59:10.487Z,100672.13
2022-11-24T21:01:39.941Z,100667.16
2022-11-24T21:04:09.123Z,100675.81
2022-11-24T21:06:36.060Z,100671.47
2022-11-24T21:09:04.217Z,100671.66
2022-11-24T21:11:32.678Z,100667.25
2022-11-24T21:13:59.481Z,100670.94
2022-11-24T21:16:30.804Z,100669.25
2022-11-24T21:19:05.848Z,100675.03
2022-11-24T21:21:35.200Z,100664.13
2022-11-24T21:24:11.544Z,100664.75
2022-11-24T21:26:39.537Z,100666.41
2022-11-24T21:29:06.799Z,100663.19
2022-11-24T21:31:37.621Z,100673.09
2022-11-24T21:34:05.221Z,100669.25
2022-11-24T21:36:34.071Z,100665.28
2022-11-24T21:39:01.810Z,100672.53
2022-11-24T21:41:29.444Z,100671.16
2022-11-24T21:43:55.999Z,100672.72
2022-11-24T21:46:23.187Z,100669.13
2022-11-24T21:48:50.031Z,100674.72
2022-11-24T21:51:18.775Z,100660.88
2022-11-24T21:53:46.665Z,100668.03
2022-11-24T21:56:15.684Z,100670.94
2022-11-24T21:58:47.291Z,100662.69
2022-11-24T22:01:16.037Z,100663.34
2022-11-24T22:03:43.143Z,100670.06
2022-11-24T22:06:09.655Z,100670.25
2022-11-24T22:08:36.201Z,100666.13
2022-11-24T22:11:02.655Z,100666.38
2022-11-24T22:13:29.477Z,100670.31
2022-11-24T22:16:04.439Z,100658.78
2022-11-24T22:18:35.789Z,100671.06
2022-11-24T22:21:06.171Z,100662.81
2022-11-24T22:23:33.962Z,100671.53
2022-11-24T22:26:06.033Z,100667.38
2022-11-24T22:28:36.005Z,100671.72
2022-11-24T22:31:07.255Z,100666.56
2022-11-24T22:33:34.431Z,100663.34
2022-11-24T22:36:01.877Z,100666.84
2022-11-24T22:38:30.055Z,100664.91
2022-11-24T22:41:08.158Z,100667.38
2022-11-24T22:43:36.172Z,100657.75
2022-11-24T22:46:13.728Z,100674.38
2022-11-24T22:48:41.075Z,100667.13
2022-11-24T22:51:10.755Z,100666.56
2022-11-24T22:53:37.613Z,100668.78
2022-11-24T22:56:06.670Z,100670.25
2022-11-24T22:58:33.572Z,100661.59
2022-11-24T23:01:22.504Z,100666.78
2022-11-24T23:03:49.825Z,100666.84
2022-11-24T23:06:20.271Z,100661.53
2022-11-24T23:08:47.334Z,100657.41
2022-11-24T23:11:16.339Z,100664.84
2022-11-24T23:13:43.332Z,100670.81
2022-11-24T23:16:15.647Z,100671.66
2022-11-24T23:18:43.533Z,100667.25
2022-11-24T23:21:20.551Z,100658.59
2022-11-24T23:23:48.152Z,100657.41
2022-11-24T23:26:21.369Z,100656.78
2022-11-24T23:28:47.809Z,100665.59
2022-11-24T23:31:18.197Z,100665.94
2022-11-24T23:33:44.718Z,100669.44
2022-11-24T23:36:12.708Z,100661.00
2022-11-24T23:38:39.534Z,100661.19
2022-11-24T23:41:10.607Z,100663.22
2022-11-24T23:43:39.529Z,100660.09
2022-11-24T23:46:20.715Z,100660.91
2022-11-24T23:48:48.516Z,100665.59
2022-11-24T23:51:20.779Z,100666.16
2022-11-24T23:53:47.464Z,100641.47
2022-11-24T23:56:25.079Z,100663.50
2022-11-24T23:58:51.738Z,100657.72
